createdAt,value
2019-02-08T00:00:28.765Z,186.70
2019-02-08T00:02:56.943Z,206.67
2019-02-08T00:05:25.153Z,188.93
2019-02-08T00:07:53.407Z,183.57
2019-02-08T00:10:21.656Z,192.20
2019-02-08T00:12:49.846Z,186.77
2019-02-08T00:15:19.758Z,201.57
2019-02-08T00:17:47.928Z,208.93
2019-02-08T00:20:18.214Z,201.33
2019-02-08T00:22:46.486Z,193.93
2019-02-08T00:25:16.296Z,206.27
2019-02-08T00:27:44.487Z,201.73
2019-02-08T00:30:15.977Z,195.80
2019-02-08T00:32:44.158Z,189.60
2019-02-08T00:35:12.343Z,209.97
2019-02-08T00:37:40.537Z,206.40
2019-02-08T00:40:11.558Z,216.33
2019-02-08T00:42:39.746Z,235.70
2019-02-08T00:45:11.590Z,236.20
2019-02-08T00:47:39.774Z,201.80
2019-02-08T00:50:16.898Z,198.63
2019-02-08T00:52:45.086Z,194.90
2019-02-08T00:55:13.269Z,210.20
2019-02-08T00:57:41.457Z,217.50
2019-02-08T01:00:11.686Z,199.50
2019-02-08T01:02:40.215Z,187.17
2019-02-08T01:05:11.038Z,216.20
2019-02-08T01:07:39.254Z,214.63
2019-02-08T01:10:10.701Z,197.63
2019-02-08T01:12:39.059Z,190.27
2019-02-08T01:15:10.593Z,212.67
2019-02-08T01:17:38.979Z,196.70
2019-02-08T01:20:10.375Z,224.60
2019-02-08T01:22:38.570Z,185.93
2019-02-08T01:25:10.197Z,225.27
2019-02-08T01:27:38.388Z,188.60
2019-02-08T01:30:12.469Z,167.77
2019-02-08T01:32:40.666Z,205.80
2019-02-08T01:35:10.585Z,201.97
2019-02-08T01:37:38.776Z,180.77
2019-02-08T01:40:12.773Z,213.50
2019-02-08T01:42:40.969Z,175.37
2019-02-08T01:45:12.263Z,187.70
2019-02-08T01:47:40.454Z,183.27
2019-02-08T01:50:12.043Z,173.60
2019-02-08T01:52:40.239Z,214.87
2019-02-08T01:55:08.426Z,199.87
2019-02-08T01:57:36.651Z,186.93
2019-02-08T02:00:10.982Z,221.23
2019-02-08T02:02:39.202Z,202.17
2019-02-08T02:05:07.686Z,159.10
2019-02-08T02:07:35.846Z,190.10
2019-02-08T02:10:06.736Z,172.37
2019-02-08T02:12:34.923Z,140.27
2019-02-08T02:15:03.110Z,155.10
2019-02-08T02:17:31.319Z,156.27
2019-02-08T02:19:59.482Z,173.27
2019-02-08T02:22:27.669Z,176.80
2019-02-08T02:24:55.862Z,159.73
2019-02-08T02:27:24.050Z,165.63
2019-02-08T02:29:52.239Z,149.33
2019-02-08T02:32:20.435Z,149.03
2019-02-08T02:34:48.631Z,140.93
2019-02-08T02:37:16.819Z,132.70
2019-02-08T02:39:45.007Z,143.80
2019-02-08T02:42:13.189Z,148.33
2019-02-08T02:44:41.372Z,132.17
2019-02-08T02:47:09.552Z,133.53
2019-02-08T02:49:37.737Z,130.63
2019-02-08T02:52:06.590Z,133.03
2019-02-08T02:54:34.779Z,135.60
2019-02-08T02:57:02.961Z,121.17
2019-02-08T02:59:31.153Z,121.00
2019-02-08T03:01:59.372Z,121.30
2019-02-08T03:04:27.541Z,108.30
2019-02-08T03:06:55.722Z,115.73
2019-02-08T03:09:23.911Z,103.53
2019-02-08T03:11:52.098Z,115.47
2019-02-08T03:14:20.287Z,126.37
2019-02-08T03:16:48.480Z,113.73
2019-02-08T03:19:16.666Z,110.10
2019-02-08T03:21:44.852Z,125.63
2019-02-08T03:24:13.263Z,122.23
2019-02-08T03:26:41.408Z,110.00
2019-02-08T03:29:09.597Z,112.37
2019-02-08T03:31:37.836Z,123.83
2019-02-08T03:34:06.048Z,125.97
2019-02-08T03:36:34.225Z,139.70
2019-02-08T03:39:02.484Z,131.37
2019-02-08T03:41:30.668Z,117.03
2019-02-08T03:43:58.850Z,124.20
2019-02-08T03:46:27.048Z,118.17
2019-02-08T03:48:55.236Z,127.20
2019-02-08T03:51:23.429Z,120.47
2019-02-08T03:53:51.610Z,142.57
2019-02-08T03:56:19.790Z,127.53
2019-02-08T03:58:47.975Z,126.43
2019-02-08T04:01:16.181Z,121.37
2019-02-08T04:03:44.365Z,139.17
2019-02-08T04:06:12.563Z,131.57
2019-02-08T04:08:40.754Z,140.73
2019-02-08T04:11:08.993Z,139.00
2019-02-08T04:13:37.127Z,151.20
2019-02-08T04:16:05.338Z,167.80
2019-02-08T04:18:33.521Z,174.07
2019-02-08T04:21:01.737Z,161.60
2019-02-08T04:23:29.917Z,169.67
2019-02-08T04:25:58.127Z,153.83
2019-02-08T04:28:26.312Z,176.83
2019-02-08T04:30:54.546Z,173.07
2019-02-08T04:33:22.736Z,174.63
2019-02-08T04:35:50.921Z,162.27
2019-02-08T04:38:19.131Z,184.57
2019-02-08T04:40:47.386Z,172.53
2019-02-08T04:43:15.591Z,175.67
2019-02-08T04:45:43.782Z,159.77
2019-02-08T04:48:12.007Z,175.03
2019-02-08T04:50:40.191Z,190.73
2019-02-08T04:53:08.381Z,174.97
2019-02-08T04:55:36.571Z,162.30
2019-02-08T04:58:04.784Z,180.47
2019-02-08T05:00:36.537Z,184.43
2019-02-08T05:03:05.659Z,165.70
2019-02-08T05:05:33.852Z,161.00
2019-02-08T05:08:02.034Z,155.37
2019-02-08T05:10:34.347Z,163.07
2019-02-08T05:13:02.495Z,156.57
2019-02-08T05:15:30.687Z,176.93
2019-02-08T05:17:58.952Z,173.83
2019-02-08T05:20:29.741Z,149.37
2019-02-08T05:22:57.931Z,150.17
2019-02-08T05:25:26.126Z,164.87
2019-02-08T05:27:54.311Z,224.85
2019-02-08T05:30:27.200Z,173.43
2019-02-08T05:32:55.390Z,154.63
2019-02-08T05:35:23.565Z,160.60
2019-02-08T05:37:51.753Z,164.47
2019-02-08T05:40:21.573Z,152.80
2019-02-08T05:42:49.761Z,153.90
2019-02-08T05:45:22.864Z,123.73
2019-02-08T05:47:51.054Z,125.10
2019-02-08T05:50:21.936Z,149.60
2019-02-08T05:52:50.151Z,146.87
2019-02-08T05:55:23.414Z,135.93
2019-02-08T05:57:51.627Z,152.63
2019-02-08T06:00:36.133Z,158.63
2019-02-08T06:03:04.755Z,168.93
2019-02-08T06:05:32.934Z,155.40
2019-02-08T06:08:01.166Z,170.20
2019-02-08T06:10:29.316Z,172.03
2019-02-08T06:12:57.500Z,178.07
2019-02-08T06:15:26.058Z,196.50
2019-02-08T06:17:54.261Z,166.17
2019-02-08T06:20:24.078Z,184.23
2019-02-08T06:22:52.351Z,151.80
2019-02-08T06:25:21.577Z,187.97
2019-02-08T06:27:49.896Z,169.33
2019-02-08T06:30:29.454Z,152.23
2019-02-08T06:32:57.662Z,140.70
2019-02-08T06:35:26.487Z,152.83
2019-02-08T06:37:54.691Z,156.33
2019-02-08T06:40:24.735Z,166.27
2019-02-08T06:42:53.006Z,188.93
2019-02-08T06:45:23.123Z,166.90
2019-02-08T06:47:51.313Z,166.10
2019-02-08T06:50:24.391Z,185.17
2019-02-08T06:52:52.650Z,171.17
2019-02-08T06:55:20.922Z,167.80
2019-02-08T06:58:05.787Z,177.93
2019-02-08T07:00:53.899Z,163.03
2019-02-08T07:03:26.832Z,173.33
2019-02-08T07:06:02.075Z,174.13
2019-02-08T07:08:47.996Z,161.67
2019-02-08T07:11:23.941Z,145.60
2019-02-08T07:13:56.954Z,164.60
2019-02-08T07:16:42.969Z,155.83
2019-02-08T07:19:29.062Z,152.73
2019-02-08T07:22:17.321Z,146.50
2019-02-08T07:24:49.871Z,168.07
2019-02-08T07:27:19.688Z,157.40
2019-02-08T07:30:01.365Z,147.40
2019-02-08T07:32:46.108Z,153.50
2019-02-08T07:35:18.825Z,158.20
2019-02-08T07:38:05.032Z,155.07
2019-02-08T07:40:38.408Z,153.33
2019-02-08T07:43:17.020Z,156.83
2019-02-08T07:45:54.080Z,156.80
2019-02-08T07:48:23.905Z,155.83
2019-02-08T07:51:10.256Z,156.27
2019-02-08T07:53:40.088Z,142.83
2019-02-08T07:56:09.901Z,139.30
2019-02-08T07:58:39.765Z,140.10
2019-02-08T08:01:09.610Z,130.03
2019-02-08T08:03:39.472Z,129.13
2019-02-08T08:06:15.293Z,121.80
2019-02-08T08:08:47.836Z,130.43
2019-02-08T08:11:23.342Z,135.63
2019-02-08T08:13:53.173Z,136.73
2019-02-08T08:16:37.993Z,129.13
2019-02-08T08:19:10.263Z,128.40
2019-02-08T08:21:40.101Z,125.90
2019-02-08T08:24:09.939Z,121.43
2019-02-08T08:26:43.086Z,122.70
2019-02-08T08:29:27.634Z,113.93
2019-02-08T08:31:57.614Z,117.40
2019-02-08T08:34:34.932Z,121.70
2019-02-08T08:37:28.990Z,109.87
2019-02-08T08:40:15.757Z,114.40
2019-02-08T08:42:49.746Z,109.40
2019-02-08T08:45:37.789Z,111.03
2019-02-08T08:48:30.544Z,112.40
2019-02-08T08:51:04.679Z,111.57
2019-02-08T08:54:09.289Z,111.17
2019-02-08T08:56:46.433Z,112.77
2019-02-08T08:59:23.856Z,111.30
2019-02-08T09:02:11.649Z,119.13
2019-02-08T09:04:45.850Z,109.40
2019-02-08T09:07:35.572Z,104.73
2019-02-08T09:10:42.676Z,99.63
2019-02-08T09:13:33.475Z,103.60
2019-02-08T09:16:33.740Z,96.30
2019-02-08T09:19:07.687Z,99.73
2019-02-08T09:21:47.892Z,91.83
2019-02-08T09:24:43.368Z,92.53
2019-02-08T09:27:37.739Z,97.07
2019-02-08T09:30:29.963Z,96.70
2019-02-08T09:33:13.094Z,100.70
2019-02-08T09:36:10.057Z,91.77
2019-02-08T09:38:56.532Z,95.27
2019-02-08T09:41:30.867Z,100.90
2019-02-08T09:44:17.512Z,102.33
2019-02-08T09:47:09.729Z,96.70
2019-02-08T09:49:58.914Z,91.70
2019-02-08T09:52:56.067Z,94.87
2019-02-08T09:55:57.774Z,103.03
2019-02-08T09:58:41.248Z,94.27
2019-02-08T10:01:29.186Z,102.43
2019-02-08T10:04:16.740Z,95.33
2019-02-08T10:06:57.332Z,94.97
2019-02-08T10:09:40.924Z,105.67
2019-02-08T10:12:23.674Z,99.87
2019-02-08T10:15:00.916Z,105.20
2019-02-08T10:17:38.101Z,101.70
2019-02-08T10:20:42.996Z,100.90
2019-02-08T10:23:20.672Z,96.20
2019-02-08T10:26:08.865Z,91.83
2019-02-08T10:28:52.462Z,92.33
2019-02-08T10:31:26.791Z,88.23
2019-02-08T10:34:26.917Z,93.40
2019-02-08T10:37:26.701Z,87.47
2019-02-08T10:40:31.097Z,88.63
2019-02-08T10:43:23.588Z,87.33
2019-02-08T10:46:07.078Z,86.70
2019-02-08T10:49:02.279Z,88.57
2019-02-08T10:51:42.851Z,82.27
2019-02-08T10:54:33.837Z,80.47
2019-02-08T10:57:13.455Z,85.07
2019-02-08T11:00:02.858Z,81.00
2019-02-08T11:03:07.628Z,83.63
2019-02-08T11:06:12.244Z,81.97
2019-02-08T11:09:16.657Z,79.80
2019-02-08T11:12:13.728Z,87.17
2019-02-08T11:15:18.340Z,79.40
2019-02-08T11:18:06.418Z,80.27
2019-02-08T11:20:34.614Z,82.00
2019-02-08T11:23:02.818Z,88.00
2019-02-08T11:25:30.996Z,77.70
2019-02-08T11:27:59.242Z,85.77
2019-02-08T11:30:27.429Z,85.13
2019-02-08T11:32:55.630Z,86.27
2019-02-08T11:35:23.815Z,80.03
2019-02-08T11:37:52.018Z,89.43
2019-02-08T11:40:23.204Z,87.93
2019-02-08T11:42:51.409Z,84.77
2019-02-08T11:45:19.684Z,85.30
2019-02-08T11:47:47.864Z,83.73
2019-02-08T11:50:21.299Z,90.47
2019-02-08T11:52:49.545Z,92.53
2019-02-08T11:55:17.768Z,90.43
2019-02-08T11:57:45.943Z,88.40
2019-02-08T12:00:17.745Z,88.40
2019-02-08T12:02:45.945Z,85.83
2019-02-08T12:05:14.122Z,81.73
2019-02-08T12:07:42.305Z,76.17
2019-02-08T12:10:10.529Z,80.17
2019-02-08T12:12:38.680Z,82.13
2019-02-08T12:15:10.125Z,77.40
2019-02-08T12:17:38.299Z,84.20
2019-02-08T12:20:09.905Z,84.53
2019-02-08T12:22:38.106Z,83.20
2019-02-08T12:25:12.010Z,77.10
2019-02-08T12:27:40.184Z,78.77
2019-02-08T12:30:28.483Z,81.83
2019-02-08T12:32:56.655Z,82.17
2019-02-08T12:35:24.843Z,83.87
2019-02-08T12:37:53.056Z,85.60
2019-02-08T12:40:21.220Z,88.07
2019-02-08T12:42:49.430Z,80.73
2019-02-08T12:45:19.565Z,76.67
2019-02-08T12:47:47.795Z,74.93
2019-02-08T12:50:17.403Z,78.13
2019-02-08T12:52:45.634Z,77.30
2019-02-08T12:55:16.195Z,82.70
2019-02-08T12:57:44.366Z,74.67
2019-02-08T13:00:18.437Z,77.90
2019-02-08T13:02:46.613Z,66.53
2019-02-08T13:05:16.049Z,68.93
2019-02-08T13:07:44.235Z,68.10
2019-02-08T13:10:15.674Z,68.50
2019-02-08T13:12:43.855Z,73.50
2019-02-08T13:15:14.486Z,64.33
2019-02-08T13:17:42.718Z,67.63
2019-02-08T13:20:16.833Z,66.60
2019-02-08T13:22:45.012Z,64.07
2019-02-08T13:25:13.432Z,64.77
2019-02-08T13:27:41.608Z,78.50
2019-02-08T13:30:15.812Z,80.77
2019-02-08T13:32:43.992Z,84.80
2019-02-08T13:35:12.175Z,83.90
2019-02-08T13:37:40.352Z,84.20
2019-02-08T13:40:14.371Z,85.90
2019-02-08T13:42:42.553Z,82.63
2019-02-08T13:45:12.467Z,79.13
2019-02-08T13:47:40.689Z,77.37
2019-02-08T13:50:23.551Z,79.93
2019-02-08T13:52:51.743Z,79.97
2019-02-08T13:55:21.880Z,71.27
2019-02-08T13:57:50.055Z,68.97
2019-02-08T14:00:35.769Z,70.63
2019-02-08T14:03:04.498Z,68.93
2019-02-08T14:05:32.706Z,74.50
2019-02-08T14:08:00.893Z,70.50
2019-02-08T14:10:29.088Z,66.93
2019-02-08T14:12:57.265Z,64.47
2019-02-08T14:15:34.013Z,67.90
2019-02-08T14:18:02.201Z,67.50
2019-02-08T14:20:30.497Z,63.00
2019-02-08T14:22:59.182Z,61.93
2019-02-08T14:25:27.392Z,60.67
2019-02-08T14:27:55.585Z,56.50
2019-02-08T14:30:35.364Z,54.47
2019-02-08T14:33:04.528Z,60.27
2019-02-08T14:35:32.851Z,56.67
2019-02-08T14:38:02.366Z,53.67
2019-02-08T14:40:30.883Z,54.43
2019-02-08T14:42:59.164Z,59.23
2019-02-08T14:45:28.343Z,57.40
2019-02-08T14:47:56.527Z,53.53
2019-02-08T14:50:26.507Z,55.47
2019-02-08T14:52:54.857Z,57.17
2019-02-08T14:55:23.028Z,57.60
2019-02-08T14:57:52.145Z,58.93
2019-02-08T15:00:21.961Z,61.03
2019-02-08T15:02:50.166Z,63.00
2019-02-08T15:05:19.584Z,67.37
2019-02-08T15:07:47.849Z,65.30
2019-02-08T15:10:19.288Z,69.93
2019-02-08T15:12:47.463Z,68.03
2019-02-08T15:15:15.662Z,72.83
2019-02-08T15:17:43.847Z,68.13
2019-02-08T15:20:24.100Z,78.73
2019-02-08T15:22:52.275Z,74.23
2019-02-08T15:25:20.457Z,80.97
2019-02-08T15:27:48.652Z,82.33
2019-02-08T15:30:22.332Z,76.27
2019-02-08T15:32:50.512Z,76.10
2019-02-08T15:35:24.383Z,82.03
2019-02-08T15:37:52.581Z,90.13
2019-02-08T15:40:37.902Z,77.17
2019-02-08T15:43:07.043Z,87.13
2019-02-08T15:45:35.483Z,87.60
2019-02-08T15:48:03.721Z,90.83
2019-02-08T15:50:31.929Z,89.03
2019-02-08T15:53:00.106Z,84.27
2019-02-08T15:55:30.820Z,75.77
2019-02-08T15:57:59.071Z,85.80
2019-02-08T16:00:29.738Z,86.90
2019-02-08T16:02:58.105Z,82.63
2019-02-08T16:05:26.552Z,80.17
2019-02-08T16:07:54.727Z,91.53
2019-02-08T16:10:22.906Z,78.80
2019-02-08T16:12:51.123Z,78.97
2019-02-08T16:15:29.384Z,81.07
2019-02-08T16:17:58.552Z,80.23
2019-02-08T16:20:29.097Z,74.20
2019-02-08T16:22:58.720Z,74.20
2019-02-08T16:25:28.638Z,76.03
2019-02-08T16:27:56.814Z,78.00
2019-02-08T16:30:30.642Z,77.03
2019-02-08T16:32:58.980Z,79.43
2019-02-08T16:35:27.380Z,85.47
2019-02-08T16:37:55.528Z,87.80
2019-02-08T16:40:30.056Z,85.50
2019-02-08T16:42:58.303Z,80.13
2019-02-08T16:45:29.183Z,83.53
2019-02-08T16:47:57.456Z,84.60
2019-02-08T16:50:30.189Z,89.17
2019-02-08T16:52:58.376Z,86.50
2019-02-08T16:55:26.580Z,83.80
2019-02-08T16:57:54.759Z,89.53
2019-02-08T17:00:31.306Z,100.83
2019-02-08T17:03:01.152Z,91.23
2019-02-08T17:05:29.984Z,86.43
2019-02-08T17:07:58.162Z,95.77
2019-02-08T17:10:26.345Z,98.97
2019-02-08T17:12:54.544Z,87.53
2019-02-08T17:15:32.739Z,99.93
2019-02-08T17:18:00.950Z,89.37
2019-02-08T17:20:40.939Z,97.57
2019-02-08T17:23:09.118Z,92.00
2019-02-08T17:25:37.346Z,101.07
2019-02-08T17:28:06.049Z,105.00
2019-02-08T17:30:34.255Z,103.67
2019-02-08T17:33:02.437Z,99.23
2019-02-08T17:35:30.616Z,101.07
2019-02-08T17:37:58.868Z,103.77
2019-02-08T17:40:29.749Z,121.77
2019-02-08T17:42:57.934Z,113.10
2019-02-08T17:45:26.109Z,99.73
2019-02-08T17:47:54.529Z,107.27
2019-02-08T17:50:25.109Z,96.57
2019-02-08T17:52:53.296Z,102.33
2019-02-08T17:55:30.563Z,103.17
2019-02-08T17:58:03.546Z,108.80
2019-02-08T18:00:48.255Z,108.33
2019-02-08T18:03:16.430Z,103.63
2019-02-08T18:05:44.604Z,119.67
2019-02-08T18:08:12.812Z,119.27
2019-02-08T18:10:40.991Z,124.13
2019-02-08T18:13:09.169Z,122.77
2019-02-08T18:15:37.355Z,124.50
2019-02-08T18:18:08.200Z,122.20
2019-02-08T18:20:39.475Z,132.37
2019-02-08T18:23:07.659Z,139.40
2019-02-08T18:25:35.866Z,131.90
2019-02-08T18:28:10.812Z,133.67
2019-02-08T18:30:34.121Z,125.10
2019-02-08T18:33:02.383Z,143.23
2019-02-08T18:35:30.669Z,136.17
2019-02-08T18:37:59.042Z,120.60
2019-02-08T18:40:27.245Z,121.67
2019-02-08T18:42:55.455Z,146.37
2019-02-08T18:45:26.335Z,138.37
2019-02-08T18:47:54.519Z,132.87
2019-02-08T18:50:24.961Z,148.33
2019-02-08T18:52:53.157Z,143.00
2019-02-08T18:55:21.345Z,140.67
2019-02-08T18:57:49.543Z,118.57
2019-02-08T19:00:29.302Z,127.67
2019-02-08T19:02:57.745Z,137.37
2019-02-08T19:05:25.965Z,145.73
2019-02-08T19:07:54.152Z,148.53
2019-02-08T19:10:23.189Z,139.13
2019-02-08T19:12:51.364Z,140.83
2019-02-08T19:15:21.484Z,137.60
2019-02-08T19:17:49.662Z,133.33
2019-02-08T19:20:22.555Z,164.40
2019-02-08T19:22:50.753Z,151.07
2019-02-08T19:25:21.841Z,148.33
2019-02-08T19:27:50.092Z,143.60
2019-02-08T19:30:20.610Z,140.47
2019-02-08T19:32:48.796Z,136.10
2019-02-08T19:35:17.145Z,143.03
2019-02-08T19:37:45.334Z,130.83
2019-02-08T19:40:19.118Z,158.37
2019-02-08T19:42:47.341Z,126.37
2019-02-08T19:45:17.570Z,129.17
2019-02-08T19:47:45.797Z,124.60
2019-02-08T19:50:28.897Z,129.73
2019-02-08T19:52:57.078Z,129.03
2019-02-08T19:55:25.267Z,129.43
2019-02-08T19:57:53.551Z,118.57
2019-02-08T20:00:29.901Z,130.93
2019-02-08T20:02:58.158Z,112.27
2019-02-08T20:05:26.317Z,116.30
2019-02-08T20:07:55.656Z,106.00
2019-02-08T20:10:26.662Z,122.60
2019-02-08T20:12:54.874Z,97.87
2019-02-08T20:15:23.075Z,99.37
2019-02-08T20:17:51.263Z,104.80
2019-02-08T20:20:19.472Z,110.97
2019-02-08T20:22:47.668Z,101.53
2019-02-08T20:25:21.088Z,104.23
2019-02-08T20:27:49.272Z,103.00
2019-02-08T20:30:19.880Z,103.17
2019-02-08T20:32:48.141Z,106.40
2019-02-08T20:35:20.521Z,112.03
2019-02-08T20:37:49.069Z,118.57
2019-02-08T20:40:25.846Z,116.07
2019-02-08T20:42:54.063Z,108.27
2019-02-08T20:45:24.196Z,107.30
2019-02-08T20:47:53.324Z,110.63
2019-02-08T20:50:22.146Z,105.60
2019-02-08T20:52:50.409Z,107.90
2019-02-08T20:55:19.235Z,99.50
2019-02-08T20:57:48.360Z,95.53
2019-02-08T21:00:26.849Z,95.53
2019-02-08T21:02:55.589Z,96.80
2019-02-08T21:05:24.666Z,120.20
2019-02-08T21:07:53.797Z,93.10
2019-02-08T21:10:21.979Z,85.97
2019-02-08T21:12:53.200Z,95.97
2019-02-08T21:15:23.720Z,92.27
2019-02-08T21:17:51.905Z,96.50
2019-02-08T21:20:21.082Z,90.47
2019-02-08T21:22:53.614Z,94.47
2019-02-08T21:25:30.617Z,106.77
2019-02-08T21:27:58.810Z,98.00
2019-02-08T21:30:26.995Z,103.33
2019-02-08T21:32:55.177Z,100.73
2019-02-08T21:35:23.439Z,106.53
2019-02-08T21:37:51.605Z,111.87
2019-02-08T21:40:30.295Z,106.60
2019-02-08T21:42:59.502Z,110.47
2019-02-08T21:45:33.162Z,112.77
2019-02-08T21:48:01.346Z,104.77
2019-02-08T21:50:29.681Z,119.17
2019-02-08T21:52:58.355Z,100.23
2019-02-08T21:55:28.673Z,110.53
2019-02-08T21:57:59.076Z,104.37
2019-02-08T22:00:29.109Z,114.33
2019-02-08T22:02:58.796Z,114.60
2019-02-08T22:05:32.704Z,105.07
2019-02-08T22:08:00.894Z,112.47
2019-02-08T22:10:30.016Z,111.23
2019-02-08T22:12:58.208Z,106.17
2019-02-08T22:15:29.299Z,112.50
2019-02-08T22:17:57.497Z,110.67
2019-02-08T22:20:25.702Z,119.10
2019-02-08T22:22:54.876Z,119.97
2019-02-08T22:25:27.662Z,106.43
2019-02-08T22:27:56.873Z,112.37
2019-02-08T22:30:28.475Z,113.20
2019-02-08T22:33:01.678Z,111.97
2019-02-08T22:35:29.844Z,109.53
2019-02-08T22:37:58.039Z,112.60
2019-02-08T22:40:26.597Z,117.57
2019-02-08T22:42:55.757Z,107.43
2019-02-08T22:45:34.591Z,103.37
2019-02-08T22:48:03.874Z,107.77
2019-02-08T22:50:32.055Z,109.50
2019-02-08T22:53:01.260Z,104.40
2019-02-08T22:55:33.987Z,114.43
2019-02-08T22:58:02.173Z,104.67
2019-02-08T23:00:38.406Z,102.23
2019-02-08T23:03:09.097Z,102.90
2019-02-08T23:05:45.019Z,105.43
2019-02-08T23:08:09.780Z,102.00
2019-02-08T23:10:39.602Z,113.80
2019-02-08T23:13:16.739Z,107.20
2019-02-08T23:15:44.959Z,104.90
2019-02-08T23:18:13.170Z,113.23
2019-02-08T23:20:44.425Z,107.70
2019-02-08T23:23:12.611Z,109.70
2019-02-08T23:25:41.699Z,104.43
2019-02-08T23:28:09.887Z,95.87
2019-02-08T23:30:38.082Z,94.53
2019-02-08T23:33:06.292Z,95.30
2019-02-08T23:35:34.461Z,95.30
2019-02-08T23:38:02.647Z,90.50
2019-02-08T23:40:30.819Z,94.27
2019-02-08T23:42:59.014Z,88.07
2019-02-08T23:45:27.198Z,96.87
2019-02-08T23:47:55.388Z,89.07
2019-02-08T23:50:24.530Z,94.87
2019-02-08T23:52:52.707Z,84.07
2019-02-08T23:55:23.015Z,90.40
2019-02-08T23:57:51.247Z,93.27
